createdAt,value
2022-12-22T00:02:36.113Z,54.97
2022-12-22T00:05:31.103Z,47.08
2022-12-22T00:08:16.381Z,55.42
2022-12-22T00:11:02.257Z,52.17
2022-12-22T00:13:49.315Z,46.90
2022-12-22T00:16:35.001Z,52.08
2022-12-22T00:19:20.851Z,46.63
2022-12-22T00:22:06.212Z,42.40
2022-12-22T00:24:51.572Z,46.63
2022-12-22T00:27:45.951Z,46.63
2022-12-22T00:30:34.723Z,45.75
2022-12-22T00:33:23.096Z,43.97
2022-12-22T00:36:09.118Z,47.45
2022-12-22T00:38:54.586Z,44.22
2022-12-22T00:41:39.928Z,46.08
2022-12-22T00:44:25.295Z,39.42
2022-12-22T00:47:12.259Z,43.80
2022-12-22T00:50:03.279Z,46.00
2022-12-22T00:52:49.048Z,41.53
2022-12-22T00:55:37.814Z,46.97
2022-12-22T00:58:31.556Z,39.08
2022-12-22T01:01:16.886Z,42.47
2022-12-22T01:04:04.222Z,41.97
2022-12-22T01:06:50.915Z,47.10
2022-12-22T01:09:36.699Z,45.63
2022-12-22T01:12:22.935Z,43.60
2022-12-22T01:15:08.350Z,45.22
2022-12-22T01:17:54.098Z,48.00
2022-12-22T01:20:41.099Z,44.75
2022-12-22T01:23:29.552Z,43.17
2022-12-22T01:26:15.475Z,39.85
2022-12-22T01:29:00.869Z,43.40
2022-12-22T01:31:48.617Z,50.35
2022-12-22T01:34:34.429Z,44.58
2022-12-22T01:37:21.442Z,50.33
2022-12-22T01:40:06.824Z,46.67
2022-12-22T01:42:54.120Z,49.08
2022-12-22T01:45:42.311Z,49.70
2022-12-22T01:48:30.586Z,50.17
2022-12-22T01:51:19.121Z,52.80
2022-12-22T01:54:07.015Z,53.13
2022-12-22T01:56:52.654Z,55.58
2022-12-22T01:59:38.592Z,51.47
2022-12-22T02:02:24.927Z,51.55
2022-12-22T02:05:11.173Z,55.28
2022-12-22T02:08:12.594Z,56.17
2022-12-22T02:11:29.363Z,54.60
2022-12-22T02:14:30.546Z,53.88
2022-12-22T02:17:27.425Z,51.05
2022-12-22T02:20:44.268Z,54.95
2022-12-22T02:23:39.547Z,55.22
2022-12-22T02:26:42.208Z,57.13
2022-12-22T02:29:29.208Z,59.72
2022-12-22T02:32:15.287Z,55.13
2022-12-22T02:35:00.575Z,73.60
2022-12-22T02:37:54.015Z,69.30
2022-12-22T02:40:48.189Z,63.80
2022-12-22T02:43:48.285Z,58.50
2022-12-22T02:46:42.076Z,60.47
2022-12-22T02:49:34.916Z,61.53
2022-12-22T02:52:27.769Z,62.78
2022-12-22T02:55:13.471Z,58.55
2022-12-22T02:57:58.885Z,62.42
2022-12-22T03:00:46.029Z,63.72
2022-12-22T03:03:31.402Z,71.53
2022-12-22T03:06:16.817Z,65.60
2022-12-22T03:09:02.286Z,71.15
2022-12-22T03:11:47.527Z,63.30
2022-12-22T03:14:32.932Z,71.53
2022-12-22T03:17:19.678Z,81.28
2022-12-22T03:20:05.054Z,71.03
2022-12-22T03:22:50.278Z,65.03
2022-12-22T03:25:35.558Z,83.85
2022-12-22T03:28:04.315Z,74.38
2022-12-22T03:30:32.695Z,83.53
2022-12-22T03:33:02.280Z,71.78
2022-12-22T03:35:30.297Z,91.82
2022-12-22T03:38:03.378Z,82.80
2022-12-22T03:40:32.067Z,77.80
2022-12-22T03:43:17.396Z,71.93
2022-12-22T03:46:03.224Z,63.13
2022-12-22T03:48:32.716Z,74.07
2022-12-22T03:51:00.729Z,64.35
2022-12-22T03:53:28.758Z,65.78
2022-12-22T03:55:56.745Z,66.68
2022-12-22T03:58:24.790Z,64.00
2022-12-22T04:00:52.991Z,70.68
2022-12-22T04:03:21.082Z,64.38
2022-12-22T04:05:50.502Z,72.28
2022-12-22T04:08:18.539Z,70.45
2022-12-22T04:11:04.338Z,64.75
2022-12-22T04:13:32.379Z,67.57
2022-12-22T04:16:00.454Z,56.88
2022-12-22T04:18:28.551Z,72.55
2022-12-22T04:20:57.968Z,77.40
2022-12-22T04:23:26.033Z,59.80
2022-12-22T04:25:54.035Z,71.75
2022-12-22T04:28:22.119Z,66.38
2022-12-22T04:30:51.143Z,69.95
2022-12-22T04:33:19.292Z,67.03
2022-12-22T04:35:47.334Z,76.68
2022-12-22T04:38:16.754Z,74.47
2022-12-22T04:40:44.794Z,69.22
2022-12-22T04:43:12.840Z,75.65
2022-12-22T04:45:40.888Z,63.58
2022-12-22T04:48:08.962Z,85.97
2022-12-22T04:50:37.055Z,66.55
2022-12-22T04:53:05.103Z,68.32
2022-12-22T04:55:34.539Z,77.60
2022-12-22T04:58:02.633Z,90.90
2022-12-22T05:00:30.768Z,102.82
2022-12-22T05:02:58.936Z,106.57
2022-12-22T05:05:27.026Z,88.50
2022-12-22T05:07:55.075Z,88.90
2022-12-22T05:10:23.116Z,74.47
2022-12-22T05:12:55.519Z,84.22
2022-12-22T05:15:23.916Z,81.63
2022-12-22T05:17:52.095Z,64.38
2022-12-22T05:20:20.632Z,82.78
2022-12-22T05:22:48.943Z,97.90
2022-12-22T05:25:18.053Z,105.25
2022-12-22T05:27:46.440Z,75.10
2022-12-22T05:30:17.859Z,86.47
2022-12-22T05:32:46.223Z,86.63
2022-12-22T05:35:14.564Z,80.28
2022-12-22T05:37:42.934Z,86.57
2022-12-22T05:40:12.752Z,87.55
2022-12-22T05:42:40.869Z,82.53
2022-12-22T05:45:15.049Z,84.20
2022-12-22T05:47:45.550Z,83.65
2022-12-22T05:50:14.962Z,83.20
2022-12-22T05:52:44.867Z,91.65
2022-12-22T05:55:13.801Z,92.15
2022-12-22T05:57:42.445Z,91.68
2022-12-22T06:00:12.778Z,68.22
2022-12-22T06:02:40.931Z,75.47
2022-12-22T06:05:12.039Z,74.68
2022-12-22T06:07:40.724Z,69.18
2022-12-22T06:10:12.705Z,75.50
2022-12-22T06:12:41.633Z,95.70
2022-12-22T06:15:12.412Z,130.55
2022-12-22T06:17:44.792Z,72.63
2022-12-22T06:20:15.646Z,87.95
2022-12-22T06:22:43.740Z,71.13
2022-12-22T06:25:17.815Z,83.22
2022-12-22T06:27:47.185Z,81.28
2022-12-22T06:30:15.784Z,77.50
2022-12-22T06:32:43.986Z,71.57
2022-12-22T06:35:14.411Z,68.15
2022-12-22T06:37:42.493Z,99.18
2022-12-22T06:40:11.397Z,76.30
2022-12-22T06:43:00.782Z,76.55
2022-12-22T06:45:34.004Z,77.63
2022-12-22T06:48:02.157Z,75.28
2022-12-22T06:50:31.580Z,74.55
2022-12-22T06:52:59.664Z,79.90
2022-12-22T06:55:27.891Z,102.72
2022-12-22T06:57:55.993Z,93.97
2022-12-22T07:00:24.999Z,101.68
2022-12-22T07:02:53.312Z,91.55
2022-12-22T07:05:21.563Z,91.15
2022-12-22T07:07:51.143Z,87.85
2022-12-22T07:10:39.712Z,104.35
2022-12-22T07:13:19.469Z,106.43
2022-12-22T07:15:52.079Z,113.55
2022-12-22T07:18:26.136Z,88.82
2022-12-22T07:20:54.151Z,128.52
2022-12-22T07:23:23.606Z,240.27
2022-12-22T07:25:51.604Z,116.68
2022-12-22T07:28:21.318Z,433.60
2022-12-22T07:30:50.588Z,249.93
2022-12-22T07:33:18.932Z,494.85
2022-12-22T07:35:47.369Z,328.40
2022-12-22T07:38:15.461Z,341.42
2022-12-22T07:40:48.051Z,961.10
2022-12-22T07:43:18.858Z,569.33
2022-12-22T07:45:46.904Z,825.00
2022-12-22T07:48:28.828Z,892.95
2022-12-22T07:51:03.057Z,849.92
2022-12-22T07:53:31.075Z,814.63
2022-12-22T07:56:03.298Z,740.70
2022-12-22T07:58:31.489Z,734.17
2022-12-22T08:01:00.764Z,822.00
2022-12-22T08:03:29.257Z,796.13
2022-12-22T08:05:57.325Z,796.20
2022-12-22T08:08:25.382Z,711.95
2022-12-22T08:10:53.461Z,622.00
2022-12-22T08:13:22.941Z,558.97
2022-12-22T08:15:51.037Z,640.95
2022-12-22T08:18:19.143Z,503.85
2022-12-22T08:20:50.779Z,472.08
2022-12-22T08:23:18.994Z,525.10
2022-12-22T08:25:49.487Z,468.80
2022-12-22T08:28:18.391Z,441.65
2022-12-22T08:30:48.334Z,499.67
2022-12-22T08:33:16.643Z,368.85
2022-12-22T08:35:45.061Z,429.65
2022-12-22T08:38:14.756Z,453.92
2022-12-22T08:40:44.526Z,428.27
2022-12-22T08:43:13.312Z,407.95
2022-12-22T08:45:42.652Z,385.95
2022-12-22T08:48:12.160Z,448.08
2022-12-22T08:50:40.513Z,294.20
2022-12-22T08:53:23.703Z,405.70
2022-12-22T08:55:57.977Z,277.77
2022-12-22T08:58:26.037Z,270.98
2022-12-22T09:00:54.141Z,161.05
2022-12-22T09:03:23.639Z,127.13
2022-12-22T09:05:51.741Z,103.57
2022-12-22T09:08:19.782Z,83.45
2022-12-22T09:10:47.815Z,76.35
2022-12-22T09:13:15.891Z,82.20
2022-12-22T09:15:43.933Z,85.45
2022-12-22T09:18:12.023Z,89.10
2022-12-22T09:20:41.459Z,83.90
2022-12-22T09:23:09.474Z,88.63
2022-12-22T09:25:37.562Z,102.70
2022-12-22T09:28:08.471Z,98.20
2022-12-22T09:30:36.547Z,90.70
2022-12-22T09:33:04.589Z,110.95
2022-12-22T09:35:32.615Z,110.10
2022-12-22T09:38:02.021Z,93.15
2022-12-22T09:40:30.076Z,93.97
2022-12-22T09:42:59.410Z,124.88
2022-12-22T09:45:27.525Z,103.03
2022-12-22T09:47:56.685Z,136.00
2022-12-22T09:50:26.466Z,115.70
2022-12-22T09:52:58.647Z,91.43
2022-12-22T09:55:41.037Z,118.05
2022-12-22T09:58:24.013Z,127.70
2022-12-22T10:01:01.814Z,400.05
2022-12-22T10:03:35.879Z,481.17
2022-12-22T10:06:12.223Z,555.70
2022-12-22T10:08:41.862Z,584.78
2022-12-22T10:11:16.504Z,266.05
2022-12-22T10:13:46.155Z,300.25
2022-12-22T10:16:19.838Z,157.63
2022-12-22T10:18:58.452Z,122.53
2022-12-22T10:21:26.531Z,94.13
2022-12-22T10:23:55.238Z,68.65
2022-12-22T10:26:29.157Z,54.65
2022-12-22T10:29:02.363Z,54.80
2022-12-22T10:31:32.416Z,49.63
2022-12-22T10:34:12.717Z,55.28
2022-12-22T10:36:41.719Z,47.80
2022-12-22T10:39:11.960Z,48.97
2022-12-22T10:41:45.825Z,47.33
2022-12-22T10:44:21.232Z,41.55
2022-12-22T10:46:51.629Z,45.60
2022-12-22T10:49:22.844Z,46.00
2022-12-22T10:51:53.871Z,46.20
2022-12-22T10:54:30.841Z,40.05
2022-12-22T10:57:19.326Z,43.80
2022-12-22T10:59:50.582Z,47.13
2022-12-22T11:02:30.508Z,42.55
2022-12-22T11:05:04.765Z,44.53
2022-12-22T11:07:35.464Z,37.47
2022-12-22T11:10:04.008Z,39.40
2022-12-22T11:12:44.723Z,43.80
2022-12-22T11:15:24.965Z,37.10
2022-12-22T11:18:02.834Z,35.38
2022-12-22T11:20:48.246Z,36.53
2022-12-22T11:23:21.252Z,33.95
2022-12-22T11:26:07.506Z,33.42
2022-12-22T11:28:55.801Z,29.98
2022-12-22T11:31:40.991Z,33.67
2022-12-22T11:34:21.904Z,33.22
2022-12-22T11:37:08.703Z,35.88
2022-12-22T11:39:43.526Z,29.30
2022-12-22T11:42:36.439Z,34.47
2022-12-22T11:45:30.373Z,26.35
2022-12-22T11:48:08.938Z,30.55
2022-12-22T11:50:59.671Z,24.98
2022-12-22T11:53:51.342Z,22.45
2022-12-22T11:56:23.913Z,22.00
2022-12-22T11:59:11.764Z,29.35
2022-12-22T12:02:01.226Z,24.40
2022-12-22T12:05:00.857Z,24.80
2022-12-22T12:07:32.937Z,22.33
2022-12-22T12:10:14.707Z,21.63
2022-12-22T12:12:52.746Z,24.42
2022-12-22T12:15:30.118Z,23.42
2022-12-22T12:18:27.858Z,18.55
2022-12-22T12:21:08.780Z,21.02
2022-12-22T12:23:53.739Z,23.23
2022-12-22T12:26:26.526Z,24.52
2022-12-22T12:29:05.461Z,22.90
2022-12-22T12:31:39.214Z,25.70
2022-12-22T12:34:13.427Z,22.63
2022-12-22T12:36:46.459Z,21.02
2022-12-22T12:39:19.335Z,22.92
2022-12-22T12:41:55.027Z,24.10
2022-12-22T12:44:27.088Z,21.80
2022-12-22T12:47:23.297Z,19.25
2022-12-22T12:50:02.962Z,22.40
2022-12-22T12:53:13.967Z,19.98
2022-12-22T12:56:04.652Z,17.67
2022-12-22T12:58:54.855Z,19.50
2022-12-22T13:01:57.760Z,16.10
2022-12-22T13:05:14.477Z,18.08
2022-12-22T13:08:12.464Z,15.73
2022-12-22T13:10:43.195Z,18.80
2022-12-22T13:13:34.821Z,21.38
2022-12-22T13:16:32.290Z,19.58
2022-12-22T13:19:03.539Z,15.10
2022-12-22T13:21:53.063Z,19.13
2022-12-22T13:24:27.527Z,23.83
2022-12-22T13:27:01.695Z,23.75
2022-12-22T13:29:41.674Z,23.92
2022-12-22T13:32:23.391Z,21.88
2022-12-22T13:35:30.321Z,17.83
2022-12-22T13:37:54.673Z,18.25
2022-12-22T13:40:26.526Z,23.42
2022-12-22T13:42:57.261Z,19.65
2022-12-22T13:45:35.630Z,16.20
2022-12-22T13:48:10.449Z,21.65
2022-12-22T13:50:42.775Z,20.52
2022-12-22T13:53:22.910Z,21.70
2022-12-22T13:56:01.392Z,19.27
2022-12-22T13:58:33.857Z,22.35
2022-12-22T14:01:05.582Z,20.85
2022-12-22T14:03:58.644Z,19.13
2022-12-22T14:06:28.090Z,20.63
2022-12-22T14:09:10.620Z,19.33
2022-12-22T14:11:38.709Z,21.45
2022-12-22T14:14:08.940Z,17.30
2022-12-22T14:16:44.362Z,22.17
2022-12-22T14:19:14.547Z,21.42
2022-12-22T14:21:43.248Z,17.63
2022-12-22T14:24:15.511Z,20.88
2022-12-22T14:26:43.944Z,19.08
2022-12-22T14:29:18.398Z,16.58
2022-12-22T14:31:55.600Z,17.73
2022-12-22T14:34:29.016Z,19.55
2022-12-22T14:36:58.476Z,20.83
2022-12-22T14:39:30.844Z,20.63
2022-12-22T14:42:01.429Z,22.35
2022-12-22T14:44:31.041Z,24.10
2022-12-22T14:47:16.154Z,20.20
2022-12-22T14:49:51.826Z,18.00
2022-12-22T14:52:26.223Z,21.73
2022-12-22T14:54:56.029Z,20.00
2022-12-22T14:57:32.436Z,20.48
2022-12-22T15:00:07.396Z,18.70
2022-12-22T15:02:39.967Z,20.35
2022-12-22T15:05:16.215Z,22.73
2022-12-22T15:08:05.232Z,21.40
2022-12-22T15:10:40.987Z,16.95
2022-12-22T15:13:18.334Z,18.73
2022-12-22T15:15:46.478Z,23.70
2022-12-22T15:18:16.809Z,14.77
2022-12-22T15:20:44.937Z,21.75
2022-12-22T15:23:16.762Z,21.17
2022-12-22T15:25:45.023Z,21.45
2022-12-22T15:28:13.077Z,20.88
2022-12-22T15:30:42.061Z,25.40
2022-12-22T15:33:14.326Z,24.35
2022-12-22T15:35:44.187Z,18.70
2022-12-22T15:38:15.418Z,17.90
2022-12-22T15:40:43.986Z,19.35
2022-12-22T15:43:36.818Z,24.17
2022-12-22T15:46:00.837Z,21.27
2022-12-22T15:48:33.041Z,21.65
2022-12-22T15:51:05.240Z,22.40
2022-12-22T15:53:34.643Z,25.77
2022-12-22T15:56:02.831Z,22.33
2022-12-22T15:58:35.977Z,23.10
2022-12-22T16:01:04.086Z,19.88
2022-12-22T16:03:32.226Z,21.25
2022-12-22T16:06:00.741Z,21.10
2022-12-22T16:08:32.367Z,21.88
2022-12-22T16:11:00.878Z,19.10
2022-12-22T16:13:29.541Z,21.20
2022-12-22T16:15:58.267Z,21.30
2022-12-22T16:18:26.937Z,22.42
2022-12-22T16:20:55.749Z,18.35
2022-12-22T16:23:27.055Z,23.35
2022-12-22T16:26:02.139Z,19.30
2022-12-22T16:28:30.717Z,23.02
2022-12-22T16:30:58.961Z,22.02
2022-12-22T16:33:27.053Z,19.77
2022-12-22T16:35:55.171Z,20.85
2022-12-22T16:38:23.330Z,21.83
2022-12-22T16:40:53.880Z,21.88
2022-12-22T16:46:17.018Z,21.13
2022-12-22T16:48:47.863Z,20.33
2022-12-22T16:51:19.726Z,26.85
2022-12-22T16:53:47.884Z,19.55
2022-12-22T16:56:19.375Z,22.45
2022-12-22T16:58:49.329Z,17.65
2022-12-22T17:01:26.711Z,21.33
2022-12-22T17:03:55.280Z,15.35
2022-12-22T17:06:23.368Z,19.52
2022-12-22T17:08:51.484Z,23.55
2022-12-22T17:11:23.108Z,22.92
2022-12-22T17:13:55.076Z,22.55
2022-12-22T17:16:24.274Z,19.13
2022-12-22T17:18:52.366Z,19.92
2022-12-22T17:21:21.823Z,20.70
2022-12-22T17:23:52.341Z,18.70
2022-12-22T17:26:23.879Z,21.25
2022-12-22T17:28:53.757Z,20.25
2022-12-22T17:31:23.681Z,21.67
2022-12-22T17:33:52.083Z,21.75
2022-12-22T17:36:33.065Z,27.05
2022-12-22T17:39:02.246Z,24.27
2022-12-22T17:41:30.712Z,23.13
2022-12-22T17:44:00.158Z,24.55
2022-12-22T17:46:29.015Z,25.20
2022-12-22T17:48:57.115Z,25.42
2022-12-22T17:51:28.261Z,25.63
2022-12-22T17:53:58.748Z,25.08
2022-12-22T17:56:28.216Z,25.85
2022-12-22T17:58:56.363Z,24.05
2022-12-22T18:01:28.706Z,28.40
2022-12-22T18:03:57.761Z,30.45
2022-12-22T18:06:29.299Z,29.63
2022-12-22T18:08:58.111Z,33.65
2022-12-22T18:11:26.604Z,35.13
2022-12-22T18:13:57.348Z,35.15
2022-12-22T18:16:27.459Z,31.42
2022-12-22T18:18:55.574Z,30.23
2022-12-22T18:21:25.653Z,33.67
2022-12-22T18:23:54.014Z,28.42
2022-12-22T18:26:24.195Z,33.83
2022-12-22T18:28:52.835Z,32.47
2022-12-22T18:31:21.630Z,30.15
2022-12-22T18:33:51.795Z,35.17
2022-12-22T18:36:21.353Z,35.35
2022-12-22T18:38:50.038Z,33.03
2022-12-22T18:41:22.970Z,36.35
2022-12-22T18:43:51.495Z,37.83
2022-12-22T18:46:20.400Z,33.97
2022-12-22T18:48:50.237Z,38.40
2022-12-22T18:51:21.568Z,40.45
2022-12-22T18:53:50.422Z,38.15
2022-12-22T18:56:18.878Z,37.95
2022-12-22T18:58:47.111Z,35.28
2022-12-22T19:01:19.856Z,40.90
2022-12-22T19:03:50.349Z,44.20
2022-12-22T19:06:21.059Z,39.13
2022-12-22T19:08:49.593Z,39.10
2022-12-22T19:11:19.205Z,36.17
2022-12-22T19:13:48.946Z,38.60
2022-12-22T19:16:19.784Z,39.30
2022-12-22T19:18:47.979Z,43.88
2022-12-22T19:21:19.054Z,44.53
2022-12-22T19:23:47.531Z,45.63
2022-12-22T19:26:22.698Z,43.53
2022-12-22T19:28:53.389Z,47.10
2022-12-22T19:31:24.132Z,44.90
2022-12-22T19:33:53.458Z,47.33
2022-12-22T19:36:26.381Z,42.97
2022-12-22T19:39:02.621Z,43.70
2022-12-22T19:41:41.290Z,47.92
2022-12-22T19:44:18.847Z,46.90
2022-12-22T19:46:47.702Z,44.88
2022-12-22T19:49:17.949Z,48.15
2022-12-22T19:51:47.939Z,49.78
2022-12-22T19:54:16.277Z,45.78
2022-12-22T19:56:47.348Z,44.45
2022-12-22T19:59:26.984Z,49.65
2022-12-22T20:01:58.592Z,46.40
2022-12-22T20:04:26.922Z,45.95
2022-12-22T20:06:56.375Z,53.15
2022-12-22T20:09:24.447Z,50.38
2022-12-22T20:11:52.477Z,53.65
2022-12-22T20:14:20.819Z,48.92
2022-12-22T20:16:48.915Z,49.40
2022-12-22T20:19:17.573Z,50.58
2022-12-22T20:21:45.738Z,48.92
2022-12-22T20:24:21.943Z,50.67
2022-12-22T20:26:54.041Z,52.60
2022-12-22T20:29:23.805Z,60.65
2022-12-22T20:31:52.049Z,52.38
2022-12-22T20:34:20.139Z,56.25
2022-12-22T20:36:48.193Z,50.42
2022-12-22T20:39:20.522Z,53.83
2022-12-22T20:41:53.494Z,56.10
2022-12-22T20:44:23.004Z,56.90
2022-12-22T20:46:51.323Z,55.42
2022-12-22T20:49:19.390Z,58.50
2022-12-22T20:51:47.583Z,53.58
2022-12-22T20:54:17.744Z,57.47
2022-12-22T20:56:46.296Z,56.88
2022-12-22T20:59:16.621Z,52.85
2022-12-22T21:01:44.871Z,57.83
2022-12-22T21:04:14.220Z,62.58
2022-12-22T21:06:46.269Z,57.63
2022-12-22T21:09:16.095Z,61.13
2022-12-22T21:11:45.829Z,59.90
2022-12-22T21:14:14.270Z,63.67
2022-12-22T21:16:43.564Z,60.13
2022-12-22T21:19:17.994Z,61.92
2022-12-22T21:21:46.265Z,56.60
2022-12-22T21:24:14.644Z,64.30
2022-12-22T21:26:47.342Z,60.00
2022-12-22T21:29:19.537Z,63.28
2022-12-22T21:31:47.636Z,59.75
2022-12-22T21:34:15.655Z,61.95
2022-12-22T21:36:45.114Z,65.28
2022-12-22T21:39:22.712Z,60.53
2022-12-22T21:42:01.280Z,62.38
2022-12-22T21:44:30.050Z,65.95
2022-12-22T21:46:58.436Z,64.25
2022-12-22T21:49:29.560Z,62.88
2022-12-22T21:51:57.760Z,62.10
2022-12-22T21:54:27.098Z,62.92
2022-12-22T21:56:56.579Z,60.70
2022-12-22T21:59:24.829Z,62.03
2022-12-22T22:01:53.499Z,65.88
2022-12-22T22:04:22.247Z,62.22
2022-12-22T22:06:50.352Z,70.60
2022-12-22T22:09:18.366Z,60.90
2022-12-22T22:12:03.601Z,59.85
2022-12-22T22:14:33.128Z,64.03
2022-12-22T22:17:01.188Z,67.35
2022-12-22T22:19:29.241Z,60.47
2022-12-22T22:21:57.283Z,55.25
2022-12-22T22:24:25.780Z,60.65
2022-12-22T22:26:55.958Z,62.97
2022-12-22T22:29:24.132Z,60.03
2022-12-22T22:31:53.580Z,63.28
2022-12-22T22:34:21.595Z,59.75
2022-12-22T22:36:49.669Z,61.10
2022-12-22T22:39:17.821Z,64.00
2022-12-22T22:41:45.872Z,61.67
2022-12-22T22:44:14.419Z,63.63
2022-12-22T22:46:42.507Z,60.22
2022-12-22T22:49:11.965Z,63.47
2022-12-22T22:51:40.026Z,61.08
2022-12-22T22:54:08.070Z,64.70
2022-12-22T22:56:38.742Z,60.22
2022-12-22T22:59:07.043Z,69.55
2022-12-22T23:01:35.221Z,60.80
2022-12-22T23:04:03.378Z,58.47
2022-12-22T23:06:32.898Z,68.53
2022-12-22T23:09:01.610Z,63.17
2022-12-22T23:11:29.685Z,63.90
2022-12-22T23:13:57.778Z,60.85
2022-12-22T23:16:25.934Z,61.92
2022-12-22T23:18:54.772Z,71.28
2022-12-22T23:21:24.625Z,70.50
2022-12-22T23:23:57.543Z,78.00
2022-12-22T23:26:26.359Z,82.35
2022-12-22T23:28:59.124Z,73.20
2022-12-22T23:31:31.294Z,67.28
2022-12-22T23:33:59.426Z,67.30
2022-12-22T23:36:27.568Z,69.85
2022-12-22T23:38:57.220Z,80.47
2022-12-22T23:41:25.494Z,78.88
2022-12-22T23:43:54.617Z,70.75
2022-12-22T23:46:23.297Z,76.63
2022-12-22T23:48:53.077Z,90.40
2022-12-22T23:51:22.749Z,87.65
2022-12-22T23:53:50.761Z,70.43
2022-12-22T23:56:20.499Z,72.38
2022-12-22T23:58:54.481Z,81.15
